createdAt,value
2018-04-30T00:02:14.257Z,76.50
2018-04-30T00:04:40.366Z,75.80
2018-04-30T00:07:06.506Z,76.30
2018-04-30T00:09:32.634Z,74.40
2018-04-30T00:11:58.717Z,75.90
2018-04-30T00:14:24.887Z,73.90
2018-04-30T00:16:50.982Z,73.70
2018-04-30T00:19:17.080Z,75.60
2018-04-30T00:21:43.173Z,77.30
2018-04-30T00:24:10.072Z,78.00
2018-04-30T00:26:36.153Z,77.90
2018-04-30T00:29:02.306Z,79.30
2018-04-30T00:31:28.395Z,79.60
2018-04-30T00:33:54.501Z,79.60
2018-04-30T00:36:20.750Z,82.00
2018-04-30T00:38:46.887Z,82.10
2018-04-30T00:41:13.103Z,85.20
2018-04-30T00:43:39.207Z,84.80
2018-04-30T00:46:06.072Z,83.70
2018-04-30T00:48:33.012Z,82.50
2018-04-30T00:50:59.870Z,81.30
2018-04-30T00:53:25.972Z,81.20
2018-04-30T00:55:52.949Z,79.00
2018-04-30T00:58:19.035Z,79.00
2018-04-30T01:00:45.874Z,79.00
2018-04-30T01:03:12.047Z,79.00
2018-04-30T01:05:38.121Z,78.20
2018-04-30T01:08:04.232Z,77.20
2018-04-30T01:10:30.392Z,77.70
2018-04-30T01:12:56.484Z,76.30
2018-04-30T01:15:22.663Z,76.90
2018-04-30T01:17:48.749Z,76.80
2018-04-30T01:20:14.874Z,75.50
2018-04-30T01:22:41.037Z,76.90
2018-04-30T01:25:07.131Z,76.80
2018-04-30T01:27:33.987Z,76.80
2018-04-30T01:30:00.305Z,76.80
2018-04-30T01:32:27.153Z,76.10
2018-04-30T01:34:54.016Z,77.50
2018-04-30T01:37:20.089Z,77.40
2018-04-30T01:39:46.163Z,77.40
2018-04-30T01:42:12.293Z,77.60
2018-04-30T01:44:38.419Z,78.30
2018-04-30T01:47:04.542Z,77.80
2018-04-30T01:49:30.682Z,78.00
2018-04-30T01:51:56.791Z,78.00
2018-04-30T01:54:23.049Z,77.80
2018-04-30T01:56:49.325Z,77.90
2018-04-30T01:59:16.191Z,77.30
2018-04-30T02:01:42.331Z,77.30
2018-04-30T02:04:08.569Z,77.60
2018-04-30T02:06:34.751Z,76.60
2018-04-30T02:09:00.860Z,77.40
2018-04-30T02:11:27.745Z,78.00
2018-04-30T02:13:53.851Z,78.00
2018-04-30T02:16:20.052Z,78.00
2018-04-30T02:18:46.161Z,78.40
2018-04-30T02:21:12.276Z,78.80
2018-04-30T02:23:38.368Z,78.10
2018-04-30T02:26:04.491Z,77.60
2018-04-30T02:28:30.604Z,78.50
2018-04-30T02:30:56.745Z,78.10
2018-04-30T02:33:22.828Z,77.90
2018-04-30T02:35:48.964Z,77.70
2018-04-30T02:38:15.798Z,78.40
2018-04-30T02:40:42.637Z,78.50
2018-04-30T02:43:09.580Z,78.50
2018-04-30T02:45:35.657Z,78.50
2018-04-30T02:48:01.757Z,78.50
2018-04-30T02:50:27.833Z,78.60
2018-04-30T02:52:53.938Z,78.00
2018-04-30T02:55:20.102Z,78.00
2018-04-30T02:57:46.186Z,78.60
2018-04-30T03:00:12.334Z,78.80
2018-04-30T03:02:38.457Z,77.90
2018-04-30T03:05:04.635Z,78.00
2018-04-30T03:07:30.727Z,78.10
2018-04-30T03:09:57.101Z,78.40
2018-04-30T03:12:23.224Z,78.50
2018-04-30T03:14:49.521Z,79.20
2018-04-30T03:17:15.641Z,78.80
2018-04-30T03:19:41.769Z,78.90
2018-04-30T03:22:08.606Z,78.40
2018-04-30T03:24:34.695Z,78.80
2018-04-30T03:27:00.873Z,78.30
2018-04-30T03:29:26.983Z,78.70
2018-04-30T03:31:53.109Z,79.50
2018-04-30T03:34:19.208Z,78.90
2018-04-30T03:36:45.362Z,78.70
2018-04-30T03:39:11.492Z,78.00
2018-04-30T03:41:37.671Z,78.70
2018-04-30T03:44:04.021Z,78.70
2018-04-30T03:46:30.269Z,78.50
2018-04-30T03:48:56.376Z,78.40
2018-04-30T03:51:22.569Z,78.00
2018-04-30T03:53:48.676Z,78.10
2018-04-30T03:56:14.770Z,78.40
2018-04-30T03:58:41.666Z,78.50
2018-04-30T04:01:20.116Z,78.50
2018-04-30T04:03:58.707Z,77.80
2018-04-30T04:06:37.203Z,78.10
2018-04-30T04:09:04.127Z,78.10
2018-04-30T04:11:30.266Z,78.40
2018-04-30T04:13:56.509Z,78.40
2018-04-30T04:16:22.614Z,78.60
2018-04-30T04:18:48.724Z,78.10
2018-04-30T04:21:15.641Z,77.10
2018-04-30T04:23:41.936Z,77.00
2018-04-30T04:26:08.081Z,76.90
2018-04-30T04:28:34.179Z,77.20
2018-04-30T04:31:00.270Z,76.30
2018-04-30T04:33:27.416Z,76.20
2018-04-30T04:35:54.305Z,77.50
2018-04-30T04:38:20.425Z,77.40
2018-04-30T04:40:46.608Z,77.60
2018-04-30T04:43:12.729Z,77.70
2018-04-30T04:45:38.855Z,77.20
2018-04-30T04:48:05.707Z,77.80
2018-04-30T04:50:31.972Z,77.70
2018-04-30T04:52:58.155Z,77.10
2018-04-30T04:55:24.937Z,76.30
2018-04-30T04:57:51.175Z,75.00
2018-04-30T05:00:17.276Z,74.90
2018-04-30T05:02:43.425Z,75.00
2018-04-30T05:05:09.609Z,74.90
2018-04-30T05:07:35.762Z,74.40
2018-04-30T05:10:02.311Z,74.40
2018-04-30T05:12:28.521Z,74.10
2018-04-30T05:14:54.731Z,73.80
2018-04-30T05:17:21.084Z,74.20
2018-04-30T05:19:47.311Z,74.00
2018-04-30T05:22:13.693Z,73.10
2018-04-30T05:24:39.782Z,73.00
2018-04-30T05:27:05.898Z,72.80
2018-04-30T05:29:32.280Z,72.30
2018-04-30T05:31:59.159Z,72.30
2018-04-30T05:34:25.448Z,72.30
2018-04-30T05:36:51.793Z,72.10
2018-04-30T05:39:17.964Z,72.30
2018-04-30T05:41:44.226Z,71.70
2018-04-30T05:44:10.385Z,71.50
2018-04-30T05:46:36.500Z,70.80
2018-04-30T05:49:02.809Z,70.80
2018-04-30T05:51:29.515Z,70.20
2018-04-30T05:53:55.780Z,70.40
2018-04-30T05:56:21.922Z,70.20
2018-04-30T05:58:48.098Z,69.00
2018-04-30T06:01:14.304Z,68.70
2018-04-30T06:03:40.463Z,68.50
2018-04-30T06:06:06.665Z,68.20
2018-04-30T06:08:33.000Z,68.10
2018-04-30T06:10:59.142Z,68.40
2018-04-30T06:13:25.878Z,68.00
2018-04-30T06:15:52.284Z,67.60
2018-04-30T06:18:18.511Z,67.80
2018-04-30T06:20:44.664Z,67.80
2018-04-30T06:23:10.748Z,66.70
2018-04-30T06:25:36.846Z,66.70
2018-04-30T06:28:03.681Z,66.10
2018-04-30T06:30:29.768Z,65.60
2018-04-30T06:32:56.012Z,64.70
2018-04-30T06:35:22.095Z,63.80
2018-04-30T06:37:48.227Z,64.30
2018-04-30T06:40:14.662Z,63.50
2018-04-30T06:42:40.786Z,64.00
2018-04-30T06:45:06.899Z,64.90
2018-04-30T06:47:33.012Z,65.60
2018-04-30T06:49:59.153Z,65.90
2018-04-30T06:52:25.279Z,65.60
2018-04-30T06:54:51.421Z,65.90
2018-04-30T06:57:17.544Z,65.20
2018-04-30T06:59:43.590Z,65.50
2018-04-30T07:02:09.677Z,65.60
2018-04-30T07:04:35.879Z,65.60
2018-04-30T07:07:02.732Z,66.10
2018-04-30T07:09:28.905Z,66.10
2018-04-30T07:11:55.686Z,66.60
2018-04-30T07:14:21.828Z,66.60
2018-04-30T07:16:48.131Z,66.90
2018-04-30T07:19:14.219Z,67.30
2018-04-30T07:21:40.308Z,67.60
2018-04-30T07:24:06.391Z,67.50
2018-04-30T07:26:32.495Z,67.00
2018-04-30T07:28:58.611Z,66.70
2018-04-30T07:31:24.690Z,66.70
2018-04-30T07:33:51.533Z,67.30
2018-04-30T07:36:18.382Z,66.80
2018-04-30T07:38:44.497Z,66.70
2018-04-30T07:41:10.661Z,65.80
2018-04-30T07:43:36.737Z,65.20
2018-04-30T07:46:02.829Z,63.60
2018-04-30T07:48:28.946Z,63.50
2018-04-30T07:50:55.084Z,61.90
2018-04-30T07:53:21.188Z,61.60
2018-04-30T07:55:47.312Z,60.00
2018-04-30T07:58:13.408Z,59.40
2018-04-30T08:00:39.554Z,59.50
2018-04-30T08:03:05.691Z,59.70
2018-04-30T08:05:31.770Z,59.40
2018-04-30T08:07:57.852Z,59.00
2018-04-30T08:10:23.954Z,58.80
2018-04-30T08:12:50.112Z,58.60
2018-04-30T08:15:16.245Z,59.40
2018-04-30T08:17:42.373Z,58.70
2018-04-30T08:20:08.460Z,59.60
2018-04-30T08:22:34.536Z,58.60
2018-04-30T08:25:00.620Z,59.10
2018-04-30T08:27:26.893Z,58.40
2018-04-30T08:29:52.973Z,57.50
2018-04-30T08:32:19.076Z,58.10
2018-04-30T08:34:45.199Z,57.90
2018-04-30T08:37:11.361Z,57.80
2018-04-30T08:39:37.480Z,57.00
2018-04-30T08:42:03.747Z,57.80
2018-04-30T08:44:30.576Z,57.50
2018-04-30T08:46:56.704Z,57.50
2018-04-30T08:49:22.788Z,56.60
2018-04-30T08:51:48.860Z,56.70
2018-04-30T08:54:15.036Z,56.00
2018-04-30T08:56:41.168Z,55.80
2018-04-30T08:59:07.273Z,56.00
2018-04-30T09:01:33.451Z,56.20
2018-04-30T09:03:59.590Z,54.40
2018-04-30T09:06:26.445Z,53.10
2018-04-30T09:08:52.641Z,53.10
2018-04-30T09:11:18.773Z,52.60
2018-04-30T09:13:44.890Z,54.10
2018-04-30T09:16:11.004Z,53.70
2018-04-30T09:18:37.209Z,53.10
2018-04-30T09:21:03.425Z,52.50
2018-04-30T09:23:29.657Z,53.20
2018-04-30T09:25:55.805Z,52.50
2018-04-30T09:28:21.912Z,52.70
2018-04-30T09:30:48.208Z,52.90
2018-04-30T09:33:14.373Z,53.10
2018-04-30T09:35:40.468Z,53.10
2018-04-30T09:38:06.582Z,53.00
2018-04-30T09:40:32.793Z,51.60
2018-04-30T09:42:59.087Z,51.10
2018-04-30T09:45:25.720Z,50.50
2018-04-30T09:47:51.843Z,49.50
2018-04-30T09:50:18.926Z,49.40
2018-04-30T09:52:45.020Z,49.50
2018-04-30T09:55:11.129Z,50.00
2018-04-30T09:57:37.324Z,49.00
2018-04-30T10:00:03.452Z,48.60
2018-04-30T10:02:30.421Z,49.40
2018-04-30T10:04:56.633Z,49.40
2018-04-30T10:07:23.002Z,49.10
2018-04-30T10:09:49.396Z,48.70
2018-04-30T10:12:15.713Z,48.30
2018-04-30T10:14:41.816Z,48.30
2018-04-30T10:17:08.325Z,48.30
2018-04-30T10:19:34.478Z,47.50
2018-04-30T10:22:01.614Z,48.10
2018-04-30T10:24:27.813Z,48.10
2018-04-30T10:26:53.940Z,47.90
2018-04-30T10:29:20.132Z,46.50
2018-04-30T10:31:46.501Z,46.50
2018-04-30T10:34:12.976Z,46.60
2018-04-30T10:36:39.112Z,46.70
2018-04-30T10:39:06.011Z,46.00
2018-04-30T10:41:32.290Z,46.00
2018-04-30T10:43:58.413Z,45.30
2018-04-30T10:46:25.293Z,44.30
2018-04-30T10:48:51.420Z,44.20
2018-04-30T10:51:17.672Z,44.50
2018-04-30T10:53:44.170Z,44.90
2018-04-30T10:56:10.359Z,43.00
2018-04-30T10:58:36.621Z,43.40
2018-04-30T11:01:02.790Z,42.30
2018-04-30T11:03:28.996Z,42.30
2018-04-30T11:05:55.684Z,42.60
2018-04-30T11:08:21.945Z,42.20
2018-04-30T11:10:48.152Z,42.40
2018-04-30T11:13:14.263Z,43.10
2018-04-30T11:15:40.545Z,43.60
2018-04-30T11:18:06.885Z,43.60
2018-04-30T11:20:33.035Z,42.30
2018-04-30T11:22:59.129Z,41.40
2018-04-30T11:25:25.225Z,41.30
2018-04-30T11:27:51.526Z,41.30
2018-04-30T11:30:17.718Z,41.10
2018-04-30T11:32:43.934Z,42.40
2018-04-30T11:35:10.646Z,42.80
2018-04-30T11:37:36.741Z,40.90
2018-04-30T11:40:02.973Z,41.40
2018-04-30T11:42:28.996Z,41.40
2018-04-30T11:44:55.148Z,40.90
2018-04-30T11:47:21.268Z,41.30
2018-04-30T11:49:47.462Z,40.70
2018-04-30T11:52:13.627Z,40.70
2018-04-30T11:54:39.770Z,40.40
2018-04-30T11:57:05.888Z,40.90
2018-04-30T11:59:31.980Z,41.00
2018-04-30T12:01:58.216Z,40.70
2018-04-30T12:04:24.449Z,41.00
2018-04-30T12:06:50.670Z,40.00
2018-04-30T12:09:16.991Z,40.00
2018-04-30T12:11:43.124Z,40.20
2018-04-30T12:14:09.259Z,40.40
2018-04-30T12:16:35.497Z,40.90
2018-04-30T12:19:01.801Z,40.90
2018-04-30T12:21:27.943Z,39.10
2018-04-30T12:23:54.060Z,39.00
2018-04-30T12:26:20.185Z,40.00
2018-04-30T12:28:47.201Z,39.90
2018-04-30T12:31:13.365Z,40.00
2018-04-30T12:33:39.491Z,40.90
2018-04-30T12:36:05.662Z,40.80
2018-04-30T12:38:31.918Z,40.60
2018-04-30T12:40:58.816Z,40.50
2018-04-30T12:43:25.043Z,40.50
2018-04-30T12:45:51.177Z,40.70
2018-04-30T12:48:18.075Z,41.50
2018-04-30T12:50:44.321Z,41.50
2018-04-30T12:53:10.538Z,41.80
2018-04-30T12:55:36.721Z,42.10
2018-04-30T12:58:02.991Z,42.40
2018-04-30T13:00:29.136Z,43.30
2018-04-30T13:02:55.236Z,42.80
2018-04-30T13:05:21.378Z,42.30
2018-04-30T13:07:47.617Z,42.50
2018-04-30T13:10:13.729Z,43.10
2018-04-30T13:12:39.904Z,43.40
2018-04-30T13:15:06.955Z,42.80
2018-04-30T13:17:33.362Z,42.90
2018-04-30T13:19:59.539Z,42.90
2018-04-30T13:22:25.668Z,43.20
2018-04-30T13:24:51.907Z,42.60
2018-04-30T13:27:18.289Z,42.40
2018-04-30T13:29:45.547Z,42.40
2018-04-30T13:32:12.404Z,43.00
2018-04-30T13:34:39.328Z,41.30
2018-04-30T13:37:05.640Z,41.30
2018-04-30T13:39:31.833Z,41.80
2018-04-30T13:41:58.109Z,42.40
2018-04-30T13:44:24.301Z,41.70
2018-04-30T13:46:50.626Z,42.10
2018-04-30T13:49:17.211Z,42.30
2018-04-30T13:51:43.386Z,42.10
2018-04-30T13:54:09.704Z,41.90
2018-04-30T13:56:36.253Z,42.00
2018-04-30T13:59:02.581Z,42.10
2018-04-30T14:01:28.695Z,41.70
2018-04-30T14:03:54.923Z,41.20
2018-04-30T14:06:21.091Z,41.60
2018-04-30T14:08:47.241Z,41.60
2018-04-30T14:11:13.537Z,41.60
2018-04-30T14:13:40.467Z,42.80
2018-04-30T14:16:07.098Z,42.70
2018-04-30T14:18:33.133Z,43.30
2018-04-30T14:20:59.348Z,43.70
2018-04-30T14:23:25.682Z,43.90
2018-04-30T14:25:52.004Z,45.10
2018-04-30T14:28:18.202Z,44.40
2018-04-30T14:30:44.356Z,43.90
2018-04-30T14:33:10.479Z,43.70
2018-04-30T14:35:37.477Z,43.90
2018-04-30T14:38:03.861Z,43.90
2018-04-30T14:40:30.046Z,44.00
2018-04-30T14:42:56.313Z,44.90
2018-04-30T14:45:22.472Z,44.80
2018-04-30T14:47:48.704Z,43.80
2018-04-30T14:50:15.064Z,43.60
2018-04-30T14:52:41.472Z,43.60
2018-04-30T14:55:07.623Z,43.90
2018-04-30T14:57:33.777Z,44.30
2018-04-30T15:00:01.766Z,44.90
2018-04-30T15:02:28.816Z,45.70
2018-04-30T15:04:55.749Z,44.70
2018-04-30T15:07:21.888Z,44.70
2018-04-30T15:09:48.001Z,45.40
2018-04-30T15:12:14.392Z,45.60
2018-04-30T15:14:40.777Z,45.90
2018-04-30T15:17:07.088Z,46.40
2018-04-30T15:19:33.370Z,46.80
2018-04-30T15:21:59.507Z,46.60
2018-04-30T15:24:26.619Z,48.20
2018-04-30T15:26:52.927Z,48.20
2018-04-30T15:29:19.061Z,48.70
2018-04-30T15:31:45.381Z,48.60
2018-04-30T15:34:11.606Z,48.50
2018-04-30T15:36:39.272Z,48.50
2018-04-30T15:39:05.413Z,47.90
2018-04-30T15:41:31.620Z,48.10
2018-04-30T15:43:58.151Z,48.30
2018-04-30T15:46:24.303Z,47.70
2018-04-30T15:48:50.416Z,47.70
2018-04-30T15:51:16.712Z,47.90
2018-04-30T15:53:42.889Z,47.10
2018-04-30T15:56:09.400Z,47.30
2018-04-30T15:58:35.728Z,46.60
2018-04-30T16:01:02.101Z,46.20
2018-04-30T16:03:28.305Z,44.50
2018-04-30T16:05:54.515Z,44.20
2018-04-30T16:08:21.128Z,43.90
2018-04-30T16:10:47.297Z,44.00
2018-04-30T16:13:13.420Z,43.60
2018-04-30T16:15:39.600Z,44.20
2018-04-30T16:18:05.754Z,44.70
2018-04-30T16:20:32.081Z,44.60
2018-04-30T16:22:58.259Z,44.40
2018-04-30T16:25:24.436Z,45.10
2018-04-30T16:27:50.686Z,45.80
2018-04-30T16:30:16.811Z,45.60
2018-04-30T16:32:43.049Z,45.30
2018-04-30T16:35:09.167Z,44.40
2018-04-30T16:37:35.326Z,44.20
2018-04-30T16:40:01.529Z,44.50
2018-04-30T16:42:27.654Z,44.40
2018-04-30T16:44:53.961Z,44.50
2018-04-30T16:47:20.142Z,44.90
2018-04-30T16:49:46.316Z,45.30
2018-04-30T16:52:12.618Z,45.20
2018-04-30T16:54:38.827Z,45.10
2018-04-30T16:57:05.093Z,45.30
2018-04-30T16:59:31.319Z,45.70
2018-04-30T17:01:57.512Z,45.60
2018-04-30T17:04:23.702Z,45.20
2018-04-30T17:06:50.514Z,45.30
2018-04-30T17:09:16.773Z,45.50
2018-04-30T17:11:42.995Z,45.60
2018-04-30T17:14:09.527Z,45.60
2018-04-30T17:16:35.909Z,45.60
2018-04-30T17:19:02.093Z,45.40
2018-04-30T17:21:28.299Z,45.60
2018-04-30T17:23:54.423Z,46.00
2018-04-30T17:26:20.547Z,46.60
2018-04-30T17:28:46.754Z,47.10
2018-04-30T17:31:13.109Z,47.70
2018-04-30T17:33:39.228Z,46.80
2018-04-30T17:36:05.465Z,47.50
2018-04-30T17:38:31.685Z,46.80
2018-04-30T17:40:58.023Z,46.90
2018-04-30T17:43:24.224Z,47.30
2018-04-30T17:45:50.452Z,47.40
2018-04-30T17:48:17.131Z,47.90
2018-04-30T17:50:44.333Z,48.50
2018-04-30T17:53:12.368Z,49.00
2018-04-30T17:55:39.784Z,49.60
2018-04-30T17:58:06.036Z,50.10
2018-04-30T18:00:33.094Z,50.40
2018-04-30T18:02:59.340Z,50.70
2018-04-30T18:05:25.749Z,50.60
2018-04-30T18:07:52.257Z,50.60
2018-04-30T18:10:18.494Z,50.90
2018-04-30T18:12:45.497Z,50.80
2018-04-30T18:15:12.032Z,50.70
2018-04-30T18:17:38.310Z,51.00
2018-04-30T18:20:04.466Z,51.10
2018-04-30T18:22:31.514Z,51.90
2018-04-30T18:24:58.615Z,52.40
2018-04-30T18:27:25.016Z,52.40
2018-04-30T18:29:51.343Z,52.70
2018-04-30T18:32:17.597Z,52.80
2018-04-30T18:34:44.543Z,52.90
2018-04-30T18:37:10.676Z,52.90
2018-04-30T18:39:37.108Z,53.10
2018-04-30T18:42:03.281Z,53.00
2018-04-30T18:44:31.193Z,53.40
2018-04-30T18:46:57.461Z,53.60
2018-04-30T18:49:23.768Z,53.20
2018-04-30T18:51:49.969Z,53.20
2018-04-30T18:54:16.230Z,53.50
2018-04-30T18:56:42.564Z,53.70
2018-04-30T18:59:08.774Z,53.70
2018-04-30T19:01:34.932Z,53.90
2018-04-30T19:04:01.059Z,54.00
2018-04-30T19:06:27.589Z,54.20
2018-04-30T19:08:53.794Z,54.30
2018-04-30T19:11:20.093Z,54.20
2018-04-30T19:13:46.200Z,54.30
2018-04-30T19:16:12.344Z,54.40
2018-04-30T19:18:38.862Z,54.20
2018-04-30T19:21:05.201Z,54.40
2018-04-30T19:23:31.336Z,53.70
2018-04-30T19:25:57.586Z,53.90
2018-04-30T19:28:24.225Z,53.90
2018-04-30T19:30:50.366Z,54.20
2018-04-30T19:33:16.492Z,54.20
2018-04-30T19:35:42.757Z,54.10
2018-04-30T19:38:08.914Z,54.00
2018-04-30T19:40:35.036Z,54.10
2018-04-30T19:43:01.539Z,53.90
2018-04-30T19:45:27.789Z,54.10
2018-04-30T19:47:54.274Z,54.00
2018-04-30T19:50:20.496Z,54.20
2018-04-30T19:52:46.823Z,54.20
2018-04-30T19:55:13.831Z,54.40
2018-04-30T19:57:39.961Z,54.40
2018-04-30T20:00:06.332Z,54.40
2018-04-30T20:02:32.531Z,54.20
2018-04-30T20:04:58.688Z,54.10
2018-04-30T20:07:24.895Z,54.60
2018-04-30T20:09:51.128Z,54.60
2018-04-30T20:12:17.261Z,54.50
2018-04-30T20:14:43.785Z,54.20
2018-04-30T20:17:09.910Z,53.90
2018-04-30T20:19:36.061Z,53.90
2018-04-30T20:22:02.233Z,53.90
2018-04-30T20:24:28.396Z,53.70
2018-04-30T20:26:54.717Z,54.50
2018-04-30T20:29:21.132Z,53.80
2018-04-30T20:31:47.308Z,53.60
2018-04-30T20:34:13.519Z,53.90
2018-04-30T20:36:39.691Z,54.20
2018-04-30T20:39:05.963Z,54.20
2018-04-30T20:41:32.169Z,54.50
2018-04-30T20:43:58.296Z,54.40
2018-04-30T20:46:24.909Z,54.80
2018-04-30T20:48:51.076Z,54.30
2018-04-30T20:51:18.102Z,54.20
2018-04-30T20:53:44.329Z,53.90
2018-04-30T20:56:10.479Z,53.80
2018-04-30T20:58:36.625Z,54.10
2018-04-30T21:01:02.951Z,54.20
2018-04-30T21:03:29.168Z,54.20
2018-04-30T21:05:55.283Z,54.40
2018-04-30T21:08:21.511Z,54.80
2018-04-30T21:10:47.629Z,54.90
2018-04-30T21:13:13.767Z,54.70
2018-04-30T21:15:40.044Z,54.90
2018-04-30T21:18:06.186Z,55.10
2018-04-30T21:20:33.064Z,55.30
2018-04-30T21:22:59.314Z,55.70
2018-04-30T21:25:25.515Z,55.90
2018-04-30T21:27:51.568Z,56.30
2018-04-30T21:30:18.414Z,57.10
2018-04-30T21:32:45.408Z,57.30
2018-04-30T21:35:11.868Z,57.30
2018-04-30T21:37:37.968Z,57.60
2018-04-30T21:40:04.998Z,57.50
2018-04-30T21:42:31.310Z,57.50
2018-04-30T21:44:57.519Z,57.60
2018-04-30T21:47:24.395Z,58.00
2018-04-30T21:49:50.535Z,58.00
2018-04-30T21:52:16.661Z,58.30
2018-04-30T21:54:42.841Z,58.70
2018-04-30T21:57:09.768Z,59.00
2018-04-30T21:59:35.958Z,58.90
2018-04-30T22:02:02.069Z,58.50
2018-04-30T22:04:28.201Z,58.40
2018-04-30T22:06:54.431Z,58.70
2018-04-30T22:09:20.524Z,59.10
2018-04-30T22:11:46.624Z,58.90
2018-04-30T22:14:12.743Z,58.90
2018-04-30T22:16:38.839Z,58.90
2018-04-30T22:19:04.924Z,59.10
2018-04-30T22:21:31.039Z,59.40
2018-04-30T22:23:57.925Z,61.60
2018-04-30T22:26:24.050Z,61.50
2018-04-30T22:28:50.154Z,62.60
2018-04-30T22:31:16.385Z,63.50
2018-04-30T22:33:42.541Z,63.40
2018-04-30T22:36:08.613Z,63.80
2018-04-30T22:38:35.484Z,63.70
2018-04-30T22:41:01.621Z,63.70
2018-04-30T22:43:27.842Z,65.00
2018-04-30T22:45:54.031Z,64.00
2018-04-30T22:48:20.104Z,63.20
2018-04-30T22:50:46.249Z,64.20
2018-04-30T22:53:12.306Z,64.30
2018-04-30T22:55:38.779Z,63.90
2018-04-30T22:58:04.960Z,63.90
2018-04-30T23:00:31.897Z,64.90
2018-04-30T23:02:58.060Z,64.80
2018-04-30T23:05:24.207Z,65.50
2018-04-30T23:07:50.272Z,66.60
2018-04-30T23:10:17.116Z,65.20
2018-04-30T23:12:43.238Z,65.20
2018-04-30T23:15:09.380Z,65.00
2018-04-30T23:17:35.545Z,65.30
2018-04-30T23:20:01.680Z,65.00
2018-04-30T23:22:35.836Z,65.30
2018-04-30T23:25:02.677Z,65.30
2018-04-30T23:27:28.848Z,65.20
2018-04-30T23:29:55.688Z,66.30
2018-04-30T23:32:21.888Z,67.00
2018-04-30T23:34:48.191Z,66.70
2018-04-30T23:37:14.360Z,67.90
2018-04-30T23:39:40.475Z,67.60
2018-04-30T23:42:06.641Z,68.40
2018-04-30T23:44:32.754Z,68.80
2018-04-30T23:46:58.887Z,69.30
2018-04-30T23:49:25.031Z,70.40
2018-04-30T23:51:51.791Z,71.30
2018-04-30T23:54:18.636Z,71.30
2018-04-30T23:56:45.478Z,71.40
2018-04-30T23:59:12.406Z,71.50
